createdAt,value
2023-03-21T00:00:28.965Z,13.47
2023-03-21T00:02:55.541Z,12.03
2023-03-21T00:05:22.604Z,11.77
2023-03-21T00:07:49.264Z,11.70
2023-03-21T00:10:23.857Z,11.83
2023-03-21T00:12:58.644Z,13.40
2023-03-21T00:15:39.315Z,12.63
2023-03-21T00:18:11.452Z,13.97
2023-03-21T00:20:38.067Z,11.93
2023-03-21T00:23:04.802Z,13.10
2023-03-21T00:25:32.962Z,12.80
2023-03-21T00:28:07.782Z,12.97
2023-03-21T00:30:34.806Z,12.23
2023-03-21T00:33:05.925Z,11.47
2023-03-21T00:36:02.535Z,12.73
2023-03-21T00:38:25.530Z,13.33
2023-03-21T00:40:52.755Z,16.40
2023-03-21T00:43:23.345Z,15.43
2023-03-21T00:45:51.447Z,16.07
2023-03-21T00:48:19.213Z,15.50
2023-03-21T00:50:47.136Z,16.23
2023-03-21T00:53:14.806Z,18.67
2023-03-21T00:55:41.976Z,19.30
2023-03-21T00:58:08.632Z,19.20
2023-03-21T01:00:39.222Z,19.27
2023-03-21T01:03:17.892Z,18.90
2023-03-21T01:06:07.200Z,19.53
2023-03-21T01:08:53.909Z,18.00
2023-03-21T01:11:26.173Z,17.87
2023-03-21T01:13:59.689Z,16.93
2023-03-21T01:16:34.614Z,16.73
2023-03-21T01:19:04.726Z,17.53
2023-03-21T01:21:32.101Z,16.70
2023-03-21T01:23:59.232Z,17.23
2023-03-21T01:26:25.893Z,15.47
2023-03-21T01:28:52.563Z,17.77
2023-03-21T01:31:19.538Z,15.97
2023-03-21T01:33:46.276Z,15.93
2023-03-21T01:36:22.352Z,16.70
2023-03-21T01:38:49.507Z,17.33
2023-03-21T01:41:26.202Z,23.43
2023-03-21T01:43:55.270Z,19.43
2023-03-21T01:46:53.945Z,15.93
2023-03-21T01:49:27.789Z,16.60
2023-03-21T01:52:12.176Z,16.33
2023-03-21T01:54:43.231Z,14.93
2023-03-21T01:57:13.639Z,14.63
2023-03-21T01:59:46.048Z,14.17
2023-03-21T02:02:18.168Z,14.20
2023-03-21T02:04:56.022Z,15.45
2023-03-21T02:07:29.348Z,14.80
2023-03-21T02:09:56.347Z,22.00
2023-03-21T02:12:23.295Z,26.90
2023-03-21T02:14:50.253Z,15.93
2023-03-21T02:17:24.969Z,29.47
2023-03-21T02:20:29.213Z,14.57
2023-03-21T02:23:16.894Z,12.70
2023-03-21T02:26:39.537Z,14.13
2023-03-21T02:29:21.886Z,13.67
2023-03-21T02:32:12.865Z,13.43
2023-03-21T02:34:54.868Z,12.70
2023-03-21T02:37:28.873Z,12.37
2023-03-21T02:40:09.770Z,9.33
2023-03-21T02:43:09.301Z,9.57
2023-03-21T02:46:13.103Z,9.47
2023-03-21T02:48:50.856Z,10.43
2023-03-21T02:51:20.515Z,10.03
2023-03-21T02:53:54.952Z,10.43
2023-03-21T02:56:31.423Z,10.10
2023-03-21T02:58:58.683Z,10.80
2023-03-21T03:01:26.052Z,10.40
2023-03-21T03:03:53.151Z,11.53
2023-03-21T03:06:22.932Z,11.00
2023-03-21T03:09:01.867Z,10.73
2023-03-21T03:11:37.095Z,10.30
2023-03-21T03:14:38.530Z,11.27
2023-03-21T03:17:15.679Z,10.80
2023-03-21T03:19:52.800Z,10.83
2023-03-21T03:22:57.965Z,10.63
2023-03-21T03:25:42.195Z,9.47
2023-03-21T03:28:09.717Z,9.33
2023-03-21T03:30:43.378Z,9.83
2023-03-21T03:33:12.003Z,9.00
2023-03-21T03:35:38.718Z,8.33
2023-03-21T03:38:07.077Z,9.47
2023-03-21T03:40:41.804Z,9.17
2023-03-21T03:43:15.976Z,8.60
2023-03-21T03:45:50.025Z,9.93
2023-03-21T03:48:25.296Z,10.03
2023-03-21T03:51:02.618Z,10.60
2023-03-21T03:53:34.016Z,11.10
2023-03-21T03:56:01.582Z,12.23
2023-03-21T03:58:42.917Z,12.07
2023-03-21T04:01:11.397Z,12.67
2023-03-21T04:03:48.990Z,12.37
2023-03-21T04:06:17.405Z,12.27
2023-03-21T04:08:44.559Z,13.60
2023-03-21T04:11:14.111Z,12.63
2023-03-21T04:13:41.188Z,12.70
2023-03-21T04:16:08.808Z,12.40
2023-03-21T04:18:35.976Z,12.87
2023-03-21T04:21:03.650Z,13.50
2023-03-21T04:23:30.350Z,13.67
2023-03-21T04:25:57.553Z,12.17
2023-03-21T04:28:24.305Z,14.53
2023-03-21T04:31:01.311Z,15.50
2023-03-21T04:33:31.610Z,11.70
2023-03-21T04:35:59.324Z,12.07
2023-03-21T04:38:30.750Z,14.53
2023-03-21T04:40:58.194Z,12.70
2023-03-21T04:43:24.758Z,14.77
2023-03-21T04:45:52.261Z,14.73
2023-03-21T04:48:19.850Z,16.50
2023-03-21T04:50:46.988Z,14.63
2023-03-21T04:53:13.576Z,15.13
2023-03-21T04:55:40.215Z,14.60
2023-03-21T04:58:06.780Z,14.03
2023-03-21T05:00:37.541Z,14.90
2023-03-21T05:03:09.285Z,14.70
2023-03-21T05:05:37.681Z,16.77
2023-03-21T05:08:05.383Z,17.83
2023-03-21T05:10:32.211Z,16.73
2023-03-21T05:12:58.840Z,15.67
2023-03-21T05:15:25.551Z,14.43
2023-03-21T05:17:52.182Z,15.07
2023-03-21T05:20:19.252Z,13.73
2023-03-21T05:22:46.336Z,12.60
2023-03-21T05:25:13.296Z,14.40
2023-03-21T05:27:45.355Z,12.90
2023-03-21T05:30:17.311Z,14.13
2023-03-21T05:32:44.056Z,13.20
2023-03-21T05:35:11.015Z,13.03
2023-03-21T05:37:38.547Z,12.77
2023-03-21T05:40:09.635Z,13.60
2023-03-21T05:42:36.362Z,13.17
2023-03-21T05:45:03.244Z,13.23
2023-03-21T05:47:30.049Z,13.83
2023-03-21T05:49:56.656Z,13.10
2023-03-21T05:52:23.506Z,13.07
2023-03-21T05:54:50.393Z,11.87
2023-03-21T05:57:19.249Z,10.97
2023-03-21T05:59:46.034Z,11.20
2023-03-21T06:02:13.114Z,11.63
2023-03-21T06:04:39.977Z,12.47
2023-03-21T06:07:06.587Z,13.77
2023-03-21T06:09:34.039Z,13.50
2023-03-21T06:12:01.120Z,11.20
2023-03-21T06:14:27.762Z,11.07
2023-03-21T06:16:54.491Z,10.33
2023-03-21T06:19:21.904Z,10.93
2023-03-21T06:21:49.286Z,11.67
2023-03-21T06:24:17.835Z,9.40
2023-03-21T06:26:45.070Z,9.40
2023-03-21T06:29:12.048Z,10.17
2023-03-21T06:31:38.734Z,9.30
2023-03-21T06:34:05.403Z,10.27
2023-03-21T06:36:32.251Z,10.67
2023-03-21T06:38:58.867Z,10.57
2023-03-21T06:41:25.502Z,10.47
2023-03-21T06:43:52.097Z,10.10
2023-03-21T06:46:18.743Z,11.07
2023-03-21T06:48:45.488Z,11.10
2023-03-21T06:51:13.581Z,9.90
2023-03-21T06:53:41.556Z,10.10
2023-03-21T06:56:09.662Z,17.10
2023-03-21T06:58:36.640Z,22.57
2023-03-21T07:01:04.400Z,11.17
2023-03-21T07:03:31.711Z,10.27
2023-03-21T07:05:58.656Z,11.47
2023-03-21T07:08:25.343Z,10.57
2023-03-21T07:10:56.313Z,10.30
2023-03-21T07:13:23.325Z,8.40
2023-03-21T07:15:49.994Z,7.53
2023-03-21T07:18:16.540Z,8.03
2023-03-21T07:20:48.403Z,6.73
2023-03-21T07:23:15.156Z,6.37
2023-03-21T07:25:42.351Z,7.50
2023-03-21T07:28:09.310Z,6.80
2023-03-21T07:30:36.917Z,7.90
2023-03-21T07:33:03.682Z,6.67
2023-03-21T07:35:30.644Z,8.33
2023-03-21T07:37:57.168Z,7.26
2023-03-21T07:40:23.804Z,7.30
2023-03-21T07:42:53.177Z,7.93
2023-03-21T07:45:25.269Z,7.87
2023-03-21T07:47:51.838Z,7.03
2023-03-21T07:50:18.715Z,7.17
2023-03-21T07:52:45.417Z,8.30
2023-03-21T07:55:12.487Z,8.07
2023-03-21T07:57:39.213Z,7.47
2023-03-21T08:00:07.063Z,7.37
2023-03-21T08:02:33.678Z,7.50
2023-03-21T08:05:00.290Z,7.77
2023-03-21T08:07:27.820Z,8.13
2023-03-21T08:09:54.447Z,8.13
2023-03-21T08:12:21.098Z,8.70
2023-03-21T08:14:48.020Z,8.10
2023-03-21T08:17:14.680Z,8.07
2023-03-21T08:19:41.357Z,7.33
2023-03-21T08:22:07.961Z,8.77
2023-03-21T08:24:34.537Z,8.27
2023-03-21T08:27:01.825Z,9.10
2023-03-21T08:29:28.591Z,8.57
2023-03-21T08:31:55.336Z,7.53
2023-03-21T08:34:23.220Z,7.77
2023-03-21T08:36:50.125Z,8.40
2023-03-21T08:39:16.758Z,7.23
2023-03-21T08:41:43.376Z,7.63
2023-03-21T08:44:10.594Z,7.90
2023-03-21T08:46:37.230Z,8.10
2023-03-21T08:49:04.065Z,8.63
2023-03-21T08:51:31.787Z,8.60
2023-03-21T08:53:58.389Z,8.60
2023-03-21T08:56:25.424Z,8.33
2023-03-21T08:58:52.027Z,7.50
2023-03-21T09:01:18.883Z,7.73
2023-03-21T09:03:45.976Z,7.07
2023-03-21T09:06:14.321Z,9.37
2023-03-21T09:08:42.052Z,8.47
2023-03-21T09:11:10.108Z,7.43
2023-03-21T09:13:36.983Z,8.43
2023-03-21T09:16:05.279Z,7.77
2023-03-21T09:18:50.720Z,7.80
2023-03-21T09:21:18.562Z,7.83
2023-03-21T09:23:45.421Z,8.13
2023-03-21T09:26:13.399Z,8.07
2023-03-21T09:28:40.630Z,8.63
2023-03-21T09:31:11.362Z,8.30
2023-03-21T09:33:40.457Z,8.00
2023-03-21T09:36:11.824Z,7.80
2023-03-21T09:38:40.684Z,8.70
2023-03-21T09:41:25.836Z,7.50
2023-03-21T09:43:58.919Z,8.40
2023-03-21T09:46:40.231Z,7.97
2023-03-21T09:49:17.724Z,8.40
2023-03-21T09:51:47.060Z,8.87
2023-03-21T09:54:19.144Z,9.13
2023-03-21T09:56:46.399Z,8.23
2023-03-21T09:59:27.557Z,8.30
2023-03-21T10:01:55.415Z,8.07
2023-03-21T10:04:22.925Z,8.10
2023-03-21T10:06:58.518Z,8.60
2023-03-21T10:09:27.239Z,8.43
2023-03-21T10:12:09.307Z,6.43
2023-03-21T10:14:47.212Z,8.47
2023-03-21T10:17:27.342Z,7.80
2023-03-21T10:20:18.735Z,8.23
2023-03-21T10:22:46.855Z,7.43
2023-03-21T10:25:16.492Z,7.60
2023-03-21T10:27:43.319Z,7.60
2023-03-21T10:30:39.546Z,7.63
2023-03-21T10:33:09.783Z,7.10
2023-03-21T10:35:38.154Z,6.70
2023-03-21T10:38:06.541Z,6.83
2023-03-21T10:40:34.987Z,6.47
2023-03-21T10:43:27.209Z,7.33
2023-03-21T10:45:55.810Z,7.00
2023-03-21T10:48:23.726Z,6.33
2023-03-21T10:50:53.258Z,6.40
2023-03-21T10:53:32.646Z,6.73
2023-03-21T10:56:00.693Z,7.37
2023-03-21T10:58:29.725Z,6.77
2023-03-21T11:00:58.343Z,6.77
2023-03-21T11:03:31.519Z,6.27
2023-03-21T11:06:08.848Z,7.50
2023-03-21T11:08:41.055Z,6.90
2023-03-21T11:11:09.743Z,7.10
2023-03-21T11:13:42.369Z,6.10
2023-03-21T11:16:23.199Z,7.40
2023-03-21T11:18:51.833Z,9.07
2023-03-21T11:21:19.149Z,9.53
2023-03-21T11:23:48.354Z,8.63
2023-03-21T11:26:27.282Z,7.20
2023-03-21T11:28:54.358Z,6.80
2023-03-21T11:31:21.603Z,10.93
2023-03-21T11:33:52.726Z,7.50
2023-03-21T11:36:19.410Z,9.23
2023-03-21T11:38:52.086Z,7.87
2023-03-21T11:41:29.493Z,7.80
2023-03-21T11:43:56.475Z,7.50
2023-03-21T11:46:25.635Z,7.80
2023-03-21T11:48:52.568Z,7.70
2023-03-21T11:51:37.973Z,7.57
2023-03-21T11:54:27.397Z,7.50
2023-03-21T11:56:58.719Z,7.10
2023-03-21T11:59:48.518Z,8.20
2023-03-21T12:02:27.013Z,7.00
2023-03-21T12:05:20.219Z,7.40
2023-03-21T12:08:08.573Z,7.43
2023-03-21T12:10:43.520Z,7.70
2023-03-21T12:13:13.612Z,7.83
2023-03-21T12:15:59.032Z,7.27
2023-03-21T12:18:37.805Z,7.83
2023-03-21T12:21:07.298Z,8.07
2023-03-21T12:23:43.056Z,7.77
2023-03-21T12:26:29.737Z,7.67
2023-03-21T12:29:11.401Z,7.60
2023-03-21T12:31:49.824Z,7.93
2023-03-21T12:34:28.956Z,8.17
2023-03-21T12:37:13.888Z,7.67
2023-03-21T12:39:41.125Z,8.33
2023-03-21T12:42:10.609Z,7.67
2023-03-21T12:44:44.501Z,7.23
2023-03-21T12:47:15.682Z,7.70
2023-03-21T12:50:14.580Z,8.37
2023-03-21T12:52:54.686Z,7.50
2023-03-21T12:55:33.909Z,8.47
2023-03-21T12:58:23.039Z,7.60
2023-03-21T13:00:58.778Z,7.70
2023-03-21T13:03:39.967Z,7.00
2023-03-21T13:06:09.858Z,7.10
2023-03-21T13:08:41.981Z,7.57
2023-03-21T13:11:10.801Z,8.63
2023-03-21T13:13:52.135Z,7.80
2023-03-21T13:16:27.632Z,8.77
2023-03-21T13:19:11.191Z,9.10
2023-03-21T13:21:46.523Z,8.07
2023-03-21T13:24:22.205Z,9.53
2023-03-21T13:27:02.534Z,6.47
2023-03-21T13:29:33.105Z,7.20
2023-03-21T13:32:08.811Z,7.23
2023-03-21T13:34:35.676Z,7.50
2023-03-21T13:37:02.952Z,7.83
2023-03-21T13:39:29.789Z,7.20
2023-03-21T13:42:02.727Z,7.07
2023-03-21T13:44:44.594Z,7.50
2023-03-21T13:47:31.758Z,8.23
2023-03-21T13:50:20.439Z,8.37
2023-03-21T13:53:02.298Z,8.30
2023-03-21T13:55:41.488Z,7.20
2023-03-21T13:58:24.665Z,6.97
2023-03-21T14:01:20.652Z,8.00
2023-03-21T14:03:48.046Z,7.57
2023-03-21T14:06:16.285Z,9.07
2023-03-21T14:08:46.597Z,7.53
2023-03-21T14:11:17.263Z,7.63
2023-03-21T14:13:51.218Z,8.10
2023-03-21T14:16:19.234Z,9.37
2023-03-21T14:18:54.493Z,8.87
2023-03-21T14:21:33.460Z,7.87
2023-03-21T14:24:13.427Z,11.33
2023-03-21T14:26:49.154Z,9.57
2023-03-21T14:29:33.669Z,7.00
2023-03-21T14:32:01.188Z,8.03
2023-03-21T14:34:30.307Z,9.27
2023-03-21T14:36:59.091Z,8.03
2023-03-21T14:39:28.954Z,8.73
2023-03-21T14:41:57.761Z,8.80
2023-03-21T14:44:28.127Z,8.47
2023-03-21T14:47:09.105Z,7.90
2023-03-21T14:49:37.676Z,7.97
2023-03-21T14:52:12.040Z,8.40
2023-03-21T14:54:44.403Z,7.20
2023-03-21T14:57:14.797Z,7.37
2023-03-21T14:59:42.339Z,7.80
2023-03-21T15:02:25.911Z,8.20
2023-03-21T15:04:54.750Z,8.37
2023-03-21T15:07:30.625Z,7.30
2023-03-21T15:10:00.995Z,7.93
2023-03-21T15:12:27.630Z,7.87
2023-03-21T15:14:54.892Z,8.07
2023-03-21T15:17:22.312Z,7.83
2023-03-21T15:19:48.867Z,7.90
2023-03-21T15:22:30.708Z,7.70
2023-03-21T15:25:01.874Z,8.37
2023-03-21T15:27:29.658Z,7.70
2023-03-21T15:29:56.965Z,8.73
2023-03-21T15:32:26.703Z,8.10
2023-03-21T15:35:06.150Z,8.13
2023-03-21T15:37:37.628Z,8.30
2023-03-21T15:40:21.196Z,8.23
2023-03-21T15:42:47.775Z,7.87
2023-03-21T15:45:21.709Z,8.43
2023-03-21T15:47:48.249Z,7.37
2023-03-21T15:50:24.104Z,8.03
2023-03-21T15:52:51.716Z,7.13
2023-03-21T15:55:28.991Z,8.30
2023-03-21T15:58:01.145Z,7.70
2023-03-21T16:00:34.279Z,10.43
2023-03-21T16:03:06.419Z,14.17
2023-03-21T16:05:33.980Z,10.60
2023-03-21T16:08:27.875Z,10.00
2023-03-21T16:10:54.494Z,9.80
2023-03-21T16:13:21.123Z,10.73
2023-03-21T16:15:47.703Z,8.70
2023-03-21T16:18:16.188Z,10.27
2023-03-21T16:20:45.146Z,9.65
2023-03-21T16:23:13.236Z,11.57
2023-03-21T16:25:40.943Z,50.70
2023-03-21T16:28:13.688Z,47.30
2023-03-21T16:30:40.546Z,46.13
2023-03-21T16:33:07.372Z,105.17
2023-03-21T16:35:33.979Z,56.37
2023-03-21T16:38:00.737Z,69.20
2023-03-21T16:40:33.992Z,107.60
2023-03-21T16:43:01.839Z,128.17
2023-03-21T16:45:30.422Z,102.73
2023-03-21T16:47:57.720Z,114.10
2023-03-21T16:50:29.700Z,48.17
2023-03-21T16:52:57.262Z,33.00
2023-03-21T16:55:24.509Z,16.27
2023-03-21T16:57:52.500Z,59.70
2023-03-21T17:00:23.211Z,75.47
2023-03-21T17:02:54.874Z,73.43
2023-03-21T17:05:25.700Z,64.80
2023-03-21T17:07:53.519Z,25.97
2023-03-21T17:10:23.448Z,30.30
2023-03-21T17:12:50.131Z,25.07
2023-03-21T17:15:17.344Z,22.73
2023-03-21T17:17:44.381Z,21.63
2023-03-21T17:20:25.972Z,21.70
2023-03-21T17:22:52.713Z,20.10
2023-03-21T17:25:20.606Z,18.13
2023-03-21T17:27:47.877Z,16.33
2023-03-21T17:30:14.892Z,17.30
2023-03-21T17:32:41.459Z,15.77
2023-03-21T17:35:08.337Z,18.43
2023-03-21T17:37:34.984Z,21.33
2023-03-21T17:40:12.236Z,20.57
2023-03-21T17:42:40.140Z,17.67
2023-03-21T17:45:07.514Z,14.93
2023-03-21T17:47:35.527Z,17.93
2023-03-21T17:50:03.796Z,18.37
2023-03-21T17:52:30.425Z,19.87
2023-03-21T17:54:56.961Z,27.50
2023-03-21T17:57:23.581Z,27.47
2023-03-21T17:59:50.190Z,30.77
2023-03-21T18:02:18.375Z,18.77
2023-03-21T18:04:45.126Z,20.43
2023-03-21T18:07:19.565Z,18.83
2023-03-21T18:09:51.106Z,22.63
2023-03-21T18:12:17.694Z,20.07
2023-03-21T18:14:45.735Z,18.43
2023-03-21T18:17:12.420Z,17.87
2023-03-21T18:19:39.006Z,17.53
2023-03-21T18:22:06.192Z,18.73
2023-03-21T18:24:32.828Z,16.10
2023-03-21T18:26:59.462Z,15.03
2023-03-21T18:32:12.856Z,16.77
2023-03-21T18:34:39.813Z,16.97
2023-03-21T18:37:08.553Z,16.53
2023-03-21T18:39:35.575Z,16.80
2023-03-21T18:42:03.737Z,14.90
2023-03-21T18:44:39.255Z,16.47
2023-03-21T18:47:07.539Z,16.50
2023-03-21T18:52:22.368Z,15.73
2023-03-21T18:54:49.315Z,16.73
2023-03-21T18:57:35.593Z,14.63
2023-03-21T19:00:23.615Z,16.50
2023-03-21T19:03:09.930Z,15.60
2023-03-21T19:05:43.045Z,15.83
2023-03-21T19:08:09.600Z,15.80
2023-03-21T19:10:37.573Z,15.60
2023-03-21T19:13:04.489Z,18.03
2023-03-21T19:15:32.326Z,16.17
2023-03-21T19:20:46.947Z,16.23
2023-03-21T19:23:13.868Z,17.17
2023-03-21T19:25:40.572Z,22.17
2023-03-21T19:28:07.230Z,16.80
2023-03-21T19:30:34.784Z,15.57
2023-03-21T19:33:01.698Z,15.73
2023-03-21T19:35:28.884Z,20.13
2023-03-21T19:37:55.634Z,87.00
2023-03-21T19:40:22.226Z,44.47
2023-03-21T19:42:48.945Z,143.37
2023-03-21T19:45:15.534Z,136.57
2023-03-21T19:47:42.235Z,30.37
2023-03-21T19:52:57.007Z,16.47
2023-03-21T19:55:23.785Z,18.63
2023-03-21T19:57:50.679Z,17.07
2023-03-21T20:00:18.705Z,16.00
2023-03-21T20:02:45.511Z,16.70
2023-03-21T20:05:13.493Z,15.47
2023-03-21T20:07:40.368Z,17.27
2023-03-21T20:10:08.851Z,17.73
2023-03-21T20:12:36.297Z,17.43
2023-03-21T20:15:16.555Z,18.23
2023-03-21T20:17:44.204Z,17.70
2023-03-21T20:20:14.871Z,18.50
2023-03-21T20:23:05.703Z,20.57
2023-03-21T20:25:29.387Z,20.27
2023-03-21T20:28:12.688Z,19.77
2023-03-21T20:30:49.683Z,16.00
2023-03-21T20:33:16.698Z,19.00
2023-03-21T20:36:29.482Z,19.50
2023-03-21T20:38:32.966Z,18.43
2023-03-21T20:41:04.526Z,16.70
2023-03-21T20:46:18.588Z,17.40
2023-03-21T20:48:48.825Z,16.27
2023-03-21T20:52:27.492Z,16.63
2023-03-21T20:54:02.524Z,15.37
2023-03-21T20:56:30.564Z,18.00
2023-03-21T20:59:12.151Z,17.87
2023-03-21T21:01:43.274Z,17.67
2023-03-21T21:04:10.315Z,17.27
2023-03-21T21:06:37.075Z,17.40
2023-03-21T21:09:04.524Z,15.07
2023-03-21T21:14:17.830Z,16.90
2023-03-21T21:16:44.958Z,17.53
2023-03-21T21:19:11.577Z,18.23
2023-03-21T21:21:38.189Z,18.33
2023-03-21T21:24:07.447Z,17.57
2023-03-21T21:26:34.655Z,18.53
2023-03-21T21:29:01.717Z,19.50
2023-03-21T21:31:28.549Z,20.77
2023-03-21T21:33:55.182Z,19.40
2023-03-21T21:36:23.294Z,21.13
2023-03-21T21:38:50.167Z,19.70
2023-03-21T21:41:21.552Z,20.67
2023-03-21T21:43:48.258Z,22.80
2023-03-21T21:46:14.881Z,20.03
2023-03-21T21:48:42.217Z,19.97
2023-03-21T21:51:09.478Z,20.67
2023-03-21T21:53:36.608Z,19.27
2023-03-21T21:56:06.621Z,22.13
2023-03-21T21:58:46.120Z,20.13
2023-03-21T22:01:12.848Z,20.77
2023-03-21T22:03:46.016Z,19.17
2023-03-21T22:06:12.851Z,21.23
2023-03-21T22:08:39.490Z,19.73
2023-03-21T22:11:06.676Z,23.10
2023-03-21T22:13:33.359Z,22.63
2023-03-21T22:15:59.937Z,22.17
2023-03-21T22:18:26.613Z,19.97
2023-03-21T22:20:53.367Z,20.47
2023-03-21T22:23:20.041Z,19.87
2023-03-21T22:25:51.812Z,20.17
2023-03-21T22:28:22.193Z,19.03
2023-03-21T22:30:49.100Z,20.23
2023-03-21T22:33:15.780Z,18.47
2023-03-21T22:35:42.385Z,20.13
2023-03-21T22:38:08.987Z,18.53
2023-03-21T22:40:35.601Z,19.67
2023-03-21T22:43:02.216Z,19.37
2023-03-21T22:45:28.807Z,19.33
2023-03-21T22:47:55.504Z,19.50
2023-03-21T22:50:22.083Z,19.93
2023-03-21T22:52:48.637Z,21.27
2023-03-21T22:55:15.412Z,21.00
2023-03-21T22:57:41.956Z,20.53
2023-03-21T23:00:13.265Z,21.23
2023-03-21T23:02:42.908Z,20.37
2023-03-21T23:05:10.342Z,21.73
2023-03-21T23:07:37.728Z,20.90
2023-03-21T23:10:05.391Z,22.20
2023-03-21T23:12:32.298Z,23.30
2023-03-21T23:14:58.859Z,24.43
2023-03-21T23:17:26.718Z,26.60
2023-03-21T23:19:53.282Z,23.40
2023-03-21T23:22:19.829Z,25.47
2023-03-21T23:24:47.111Z,27.93
2023-03-21T23:27:14.337Z,26.57
2023-03-21T23:29:40.956Z,29.17
2023-03-21T23:32:07.572Z,28.73
2023-03-21T23:34:34.170Z,28.77
2023-03-21T23:37:00.861Z,28.20
2023-03-21T23:39:28.333Z,28.00
2023-03-21T23:41:55.098Z,28.90
2023-03-21T23:44:21.647Z,31.50
2023-03-21T23:46:48.213Z,32.27
2023-03-21T23:49:15.503Z,32.40
2023-03-21T23:51:42.280Z,31.00
2023-03-21T23:54:08.870Z,33.03
2023-03-21T23:56:36.485Z,31.80
2023-03-21T23:59:03.745Z,31.30
